Maurilandia, Brazil
Current Conditions -  °F | °C
As of 3:00 PM on Saturday 25 Oct 2014 (Local Time) from SBGO Reporting Station
Light Rain Light Rain  
Wind Chill: 70°   Ceiling: 5000
Heat Index: 70°   Visibility: 6mi
Dew Point: 66°   Wind: 10mph
Humidity: 88%   Direction: 140°SE
Pressure: 29.97"   Gusts: NA
Location:  17.98°S, 50.33°W
Report Text: SBGO 251700Z 14009KT 9999 -RA FEW010 BKN050 OVC100 21/19 Q1015
Loading
Personal Weather Stations






























Interactive Weather Map
Tropical Storm Tracking
New forecast layout! Learn more

10-Day Weather Forecast

Advertisements
Track Severe Weather on mobile